Delray Beach, FL (33444)

1:57 AM EDT on April 27, 2015 (GMT -0400)
Delray Beach | | Change Station
CLOSE
Current Station
Personal Weather Station
Location: Delray Beach, FL
Elevation: 30 ft
Nearby Weather Stations

Elev 30 ft 26.47 °N, 80.09 °W | Updated 18 seconds ago

Partly Cloudy
Partly Cloudy
77.7 °F
Feels Like 80 °F
N
1.7
Wind Variable Wind from SW
Gusts 3.7 mph

Today
High -- | Low -- °F
--% Chance of Precip.
Yesterday
High -- | Low -- °F
Precip. -- in
6:46 AM 7:50 PM
Waxing Gibbous, 62% visible
Pressure 29.81 in
Visibility 7.0 miles
Clouds Clear
Heat Index 80 °F
Dew Point 74 °F
Humidity 90%
Rainfall 0.00 in
Snow Depth Not available.
UV 0 out of 12
Pollen 7.30 out of 12
Air Quality Not available.
Flu Activity Local Activity
METAR KPMP 270453Z AUTO 28009KT 7SM CLR 27/23 A2981 RMK AO2 SLP095 T02670233 403670244

More Conditions Fewer Conditions

Pressure 29.81 in
Visibility 7.0 miles
Clouds Clear
Heat Index 80 °F
Dew Point 74 °F
Humidity 90%
Rainfall 0.00 in
Snow Depth Not available.
UV 0 out of 12
Pollen 7.30 out of 12
Air Quality Not available.
Flu Activity Local Activity
METAR KPMP 270453Z AUTO 28009KT 7SM CLR 27/23 A2981 RMK AO2 SLP095 T02670233 403670244

More Conditions Fewer Conditions

The full scope of the disaster following a powerful 7.8-magnitude earthquake in Nepal may not come into view for days, but global charities are already sending emergency aid. Click to see how you can help.

10-Day Weather Forecast

Almanac

Astronomy

Apr. 27, 2015 Rise Set
Actual Time
Civil Twilight
Nautical Twilight
Astronomical Twilight
Moon
Length of Visible Light
Length of Day
Tomorrow will be .
, % of the Moon is Illuminated

Today's Extremes

State Highs State Lows

Community

WunderPhotos

Upload Photos

1,817,267 photos uploaded!

WunderBlogs® & News

Nearby

Air Quality

  Air Quality AQ Index Pollutant
Not available.

Snow Depth

Station Depth Elevation

Earthquake Activity

City Distance Mag. Time & Date
Minimum magnitude displayed is 2.5.

Coastal Water Temperatures

Place Temperature

Stations

Nearby Weather Stations

Station Location Temp. Windchill Dew Point Humidity Wind Precip. Elev Updated Type